Time;durP1;ratioP1;P1;durP2;ratioP2;P2;SDS_P1;SDS_P2;PMS_P1;PMS_P2;Temp;Humidity;BMP_temperature;BMP_pressure;BME280_temperature;BME280_humidity;BME280_pressure;Samples;Min_cycle;Max_cycle;Signal;HPM_P1;HPM_P2
2023/07/09 00:01:50;;;;;;;8.25;5.90;;;;;;;17.62;100.00;97835.59;5130662;27;20027;-74
2023/07/09 00:04:16;;;;;;;13.73;6.68;;;;;;;17.62;100.00;97832.91;5130903;27;20045;-74
2023/07/09 00:06:42;;;;;;;10.45;6.20;;;;;;;17.60;100.00;97837.56;5131033;27;20111;-74
2023/07/09 00:09:33;;;;;;;12.77;6.47;;;;;;;17.58;100.00;97838.69;5113360;27;20085;-74
2023/07/09 00:11:59;;;;;;;7.72;6.05;;;;;;;17.51;100.00;97843.72;5109689;27;20042;-74
2023/07/09 00:14:24;;;;;;;10.15;6.60;;;;;;;17.46;100.00;97850.53;5131061;27;20030;-74
2023/07/09 00:16:50;;;;;;;14.88;6.80;;;;;;;17.41;100.00;97845.47;5130472;27;20045;-74
2023/07/09 00:19:18;;;;;;;11.65;6.88;;;;;;;17.44;100.00;97853.38;5130535;27;20038;-74
2023/07/09 00:21:45;;;;;;;8.68;6.93;;;;;;;17.38;100.00;97848.44;5130735;27;20031;-74
2023/07/09 00:24:12;;;;;;;13.80;7.43;;;;;;;17.38;100.00;97853.84;5130223;27;20076;-74
2023/07/09 00:26:40;;;;;;;18.85;7.55;;;;;;;17.35;100.00;97848.72;5130559;27;20027;-73
2023/07/09 00:29:10;;;;;;;18.10;7.18;;;;;;;17.43;100.00;97861.59;5130269;27;20043;-74
2023/07/09 00:31:38;;;;;;;10.77;7.28;;;;;;;17.35;100.00;97859.53;5130633;27;20045;-74
2023/07/09 00:34:04;;;;;;;12.10;7.65;;;;;;;17.41;100.00;97866.28;5113587;28;20031;-74
2023/07/09 00:36:34;;;;;;;10.85;6.63;;;;;;;17.34;100.00;97860.53;5113293;28;20029;-74
2023/07/09 00:39:04;;;;;;;12.13;5.82;;;;;;;17.18;100.00;97852.84;5130319;28;20023;-74
2023/07/09 00:41:33;;;;;;;11.05;6.30;;;;;;;17.14;100.00;97855.91;5130637;27;20015;-74
2023/07/09 00:44:29;;;;;;;14.35;7.07;;;;;;;17.08;100.00;97843.78;5130079;27;20030;-74
2023/07/09 00:47:03;;;;;;;11.95;5.85;;;;;;;17.08;100.00;97851.03;5129610;27;20039;-74
2023/07/09 00:49:44;;;;;;;10.50;5.20;;;;;;;16.98;100.00;97833.88;5131574;27;20088;-74
2023/07/09 00:52:35;;;;;;;11.98;6.43;;;;;;;16.98;100.00;97844.69;5103223;28;20065;-74
2023/07/09 00:55:08;;;;;;;16.88;6.63;;;;;;;16.99;100.00;97846.38;5103042;28;20502;-74
2023/07/09 00:57:37;;;;;;;12.38;6.60;;;;;;;16.88;100.00;97841.03;5130314;27;20482;-74
2023/07/09 01:00:09;;;;;;;12.98;6.57;;;;;;;16.84;100.00;97844.97;5113249;28;20106;-74
2023/07/09 01:02:38;;;;;;;13.23;6.32;;;;;;;16.70;100.00;97841.53;5113560;28;20276;-74
2023/07/09 01:05:06;;;;;;;14.77;6.50;;;;;;;16.78;100.00;97844.50;5130432;28;20027;-74
2023/07/09 01:07:32;;;;;;;9.48;6.78;;;;;;;16.90;100.00;97849.84;5130151;27;20407;-74
2023/07/09 01:09:57;;;;;;;15.93;6.63;;;;;;;16.86;100.00;97851.13;5112858;28;20025;-74
2023/07/09 01:12:23;;;;;;;15.07;6.55;;;;;;;16.80;100.00;97847.03;5129937;28;20417;-74
2023/07/09 01:14:52;;;;;;;14.68;6.07;;;;;;;16.74;100.00;97852.94;5130237;27;20022;-74
2023/07/09 01:17:18;;;;;;;18.98;6.40;;;;;;;16.63;100.00;97853.84;5131051;27;20546;-74
2023/07/09 01:19:48;;;;;;;16.15;7.20;;;;;;;16.59;100.00;97857.78;5130123;28;20019;-74
2023/07/09 01:22:18;;;;;;;21.95;7.43;;;;;;;16.63;100.00;97858.38;5112574;28;20027;-74
2023/07/09 01:24:51;;;;;;;15.73;7.30;;;;;;;16.53;100.00;97850.13;5129947;27;20080;-74
2023/07/09 01:27:20;;;;;;;18.38;7.25;;;;;;;16.58;100.00;97845.25;5129566;27;20027;-74
2023/07/09 01:29:48;;;;;;;14.77;7.70;;;;;;;16.62;100.00;97845.84;5131161;27;20066;-73
2023/07/09 01:32:18;;;;;;;12.23;7.25;;;;;;;16.55;100.00;97850.88;5129854;27;20114;-74
2023/07/09 01:34:47;;;;;;;11.52;7.32;;;;;;;16.62;100.00;97848.56;5130030;27;20539;-74
2023/07/09 01:37:14;;;;;;;16.25;7.75;;;;;;;16.54;100.00;97845.59;5131640;27;20386;-74
2023/07/09 01:39:40;;;;;;;14.95;7.10;;;;;;;16.58;100.00;97853.34;5105092;28;20038;-73
2023/07/09 01:42:08;;;;;;;9.02;6.32;;;;;;;16.51;100.00;97852.13;5096181;28;20035;-74
2023/07/09 01:44:35;;;;;;;8.98;6.40;;;;;;;16.35;100.00;97854.31;5112639;28;20055;-74
2023/07/09 01:47:04;;;;;;;12.65;6.45;;;;;;;16.37;100.00;97863.16;5127754;27;20034;-74
2023/07/09 01:49:32;;;;;;;10.60;6.38;;;;;;;16.40;100.00;97871.00;5133116;27;20471;-73
2023/07/09 01:52:00;;;;;;;12.63;6.63;;;;;;;16.42;100.00;97866.34;5133383;27;20031;-74
2023/07/09 01:54:30;;;;;;;14.50;6.88;;;;;;;16.32;100.00;97868.06;5133157;27;20375;-74
2023/07/09 01:57:13;;;;;;;12.20;6.93;;;;;;;16.27;100.00;97865.72;5134584;27;20036;-74
2023/07/09 01:59:41;;;;;;;10.35;7.25;;;;;;;16.32;100.00;97861.81;5130881;27;20062;-73
2023/07/09 02:02:09;;;;;;;13.88;6.65;;;;;;;16.41;100.00;97878.13;5115090;27;20435;-74
2023/07/09 02:04:34;;;;;;;10.98;6.50;;;;;;;16.37;100.00;97873.09;5133000;27;20039;-74
2023/07/09 02:07:00;;;;;;;16.30;6.85;;;;;;;16.33;100.00;97872.50;5132949;27;20026;-74
2023/07/09 02:09:25;;;;;;;14.25;6.85;;;;;;;16.42;100.00;97884.41;5115726;27;20172;-74
2023/07/09 02:11:51;;;;;;;9.68;7.25;;;;;;;16.43;100.00;97878.84;5132974;27;20027;-74
2023/07/09 02:14:16;;;;;;;16.88;8.18;;;;;;;16.45;100.00;97878.75;5115806;27;20023;-74
2023/07/09 02:16:43;;;;;;;48.70;9.73;;;;;;;16.51;100.00;97887.22;5132888;27;20049;-74
2023/07/09 02:19:09;;;;;;;9.73;7.30;;;;;;;16.57;100.00;97900.25;5132762;27;20034;-74
2023/07/09 02:21:34;;;;;;;14.00;7.30;;;;;;;16.45;100.00;97885.00;5132763;27;20027;-74
2023/07/09 02:24:00;;;;;;;16.73;8.32;;;;;;;16.54;100.00;97900.50;5115387;27;20041;-75
2023/07/09 02:26:25;;;;;;;15.20;7.72;;;;;;;16.56;100.00;97898.53;5132729;27;20030;-74
2023/07/09 02:28:51;;;;;;;10.93;7.03;;;;;;;16.46;100.00;97888.53;5132698;27;20107;-73
2023/07/09 02:31:16;;;;;;;9.75;6.80;;;;;;;16.48;100.00;97895.56;5112337;27;20451;-74
2023/07/09 02:33:42;;;;;;;10.50;6.50;;;;;;;16.51;100.00;97884.53;5112796;27;20110;-73
2023/07/09 02:36:07;;;;;;;15.57;7.10;;;;;;;16.56;100.00;97893.13;5132293;27;20045;-73
2023/07/09 02:38:33;;;;;;;12.52;7.65;;;;;;;16.43;100.00;97892.34;5115294;27;20031;-73
2023/07/09 02:40:58;;;;;;;11.55;7.03;;;;;;;16.48;100.00;97892.88;5133437;27;20023;-73
2023/07/09 02:43:23;;;;;;;14.35;7.07;;;;;;;16.49;100.00;97899.13;5115055;27;20402;-74
2023/07/09 02:45:49;;;;;;;12.98;7.82;;;;;;;16.54;100.00;97900.50;5132027;27;20049;-74
2023/07/09 02:48:14;;;;;;;12.90;6.93;;;;;;;16.61;100.00;97896.31;5113771;27;20567;-74
2023/07/09 02:50:40;;;;;;;13.40;6.82;;;;;;;16.58;100.00;97898.44;5132005;27;20023;-73
2023/07/09 02:53:05;;;;;;;10.88;7.07;;;;;;;16.60;100.00;97909.97;5105618;28;20034;-73
2023/07/09 02:55:31;;;;;;;8.63;6.05;;;;;;;16.62;100.00;97914.25;5127291;27;20055;-73
2023/07/09 02:57:57;;;;;;;13.48;6.75;;;;;;;16.45;100.00;97911.16;5132051;27;20084;-73
2023/07/09 03:00:22;;;;;;;10.50;6.72;;;;;;;16.41;100.00;97915.94;5131842;27;20404;-73
2023/07/09 03:02:48;;;;;;;10.40;6.80;;;;;;;16.28;100.00;97912.47;5131837;27;20023;-73
2023/07/09 03:05:13;;;;;;;13.10;6.82;;;;;;;16.28;100.00;97916.03;5131930;27;20027;-72
2023/07/09 03:07:39;;;;;;;9.60;6.50;;;;;;;16.19;100.00;97910.50;5114753;27;20489;-73
2023/07/09 03:10:05;;;;;;;8.52;6.30;;;;;;;16.27;100.00;97918.88;5114298;27;20474;-74
2023/07/09 03:12:30;;;;;;;8.45;6.75;;;;;;;16.19;100.00;97907.81;5131703;27;20027;-74
2023/07/09 03:14:56;;;;;;;11.27;6.80;;;;;;;16.16;100.00;97913.44;5131745;27;20031;-73
2023/07/09 03:17:21;;;;;;;9.00;6.55;;;;;;;16.21;100.00;97909.41;5132551;27;20510;-73
2023/07/09 03:19:47;;;;;;;9.68;7.18;;;;;;;16.22;100.00;97904.88;5131769;27;20031;-72
2023/07/09 03:22:12;;;;;;;10.65;7.15;;;;;;;16.29;100.00;97906.09;5132732;27;20505;-73
2023/07/09 03:24:37;;;;;;;12.45;7.13;;;;;;;16.32;100.00;97907.69;5128718;27;20088;-73
2023/07/09 03:27:03;;;;;;;26.88;7.78;;;;;;;16.37;100.00;97914.44;5097330;27;20514;-73
2023/07/09 03:29:29;;;;;;;12.75;8.00;;;;;;;16.36;100.00;97904.66;5119608;27;20024;-73
2023/07/09 03:31:54;;;;;;;55.15;7.90;;;;;;;16.40;100.00;97914.19;5111366;27;20567;-73
2023/07/09 03:34:20;;;;;;;8.98;6.85;;;;;;;16.35;100.00;97911.03;5131177;27;20058;-74
2023/07/09 03:36:47;;;;;;;18.63;7.78;;;;;;;16.38;100.00;97909.91;5131471;27;20031;-74
2023/07/09 03:39:12;;;;;;;12.65;7.43;;;;;;;16.48;100.00;97919.00;5132211;27;20075;-74
2023/07/09 03:41:38;;;;;;;10.82;7.03;;;;;;;16.52;100.00;97924.03;5131118;27;20031;-74
2023/07/09 03:44:03;;;;;;;14.68;7.47;;;;;;;16.53;100.00;97917.66;5130876;27;20027;-74
2023/07/09 03:46:29;;;;;;;13.20;8.15;;;;;;;16.55;100.00;97931.09;5113007;27;20095;-74
2023/07/09 03:48:55;;;;;;;27.55;8.27;;;;;;;16.60;100.00;97926.16;5130916;27;20024;-74
2023/07/09 03:51:20;;;;;;;18.25;7.13;;;;;;;16.63;100.00;97928.63;5130994;27;20494;-74
2023/07/09 03:53:46;;;;;;;16.85;7.55;;;;;;;16.66;100.00;97926.53;5132457;27;20027;-74
2023/07/09 03:56:11;;;;;;;14.73;7.32;;;;;;;16.73;100.00;97932.31;5132170;27;20031;-73
2023/07/09 03:58:37;;;;;;;13.00;7.32;;;;;;;16.74;100.00;97928.59;5130756;27;20499;-74
2023/07/09 04:01:03;;;;;;;22.90;10.75;;;;;;;16.75;100.00;97925.78;5113290;27;20023;-74
2023/07/09 04:03:28;;;;;;;24.08;10.27;;;;;;;16.82;100.00;97922.59;5113530;27;20083;-74
2023/07/09 04:05:54;;;;;;;13.25;6.45;;;;;;;16.88;100.00;97936.47;5132291;27;20171;-74
2023/07/09 04:08:20;;;;;;;9.95;5.97;;;;;;;16.98;100.00;97920.38;5130826;27;20030;-74
2023/07/09 04:10:45;;;;;;;11.10;6.93;;;;;;;17.10;100.00;97925.59;5119759;27;20030;-74
2023/07/09 04:13:11;;;;;;;18.65;10.52;;;;;;;17.18;100.00;97933.09;5118865;27;20045;-74
2023/07/09 04:15:36;;;;;;;17.92;9.45;;;;;;;17.27;100.00;97926.94;5129624;27;20482;-74
2023/07/09 04:18:02;;;;;;;12.80;6.75;;;;;;;17.39;100.00;97928.59;5130825;27;20080;-74
2023/07/09 04:20:28;;;;;;;10.13;5.35;;;;;;;17.49;100.00;97940.38;5113355;27;20092;-74
2023/07/09 04:22:53;;;;;;;8.23;5.65;;;;;;;17.52;100.00;97921.19;5108786;28;20028;-74
2023/07/09 04:25:19;;;;;;;8.88;6.05;;;;;;;17.63;100.00;97928.41;5110311;28;20032;-74
2023/07/09 04:27:44;;;;;;;11.00;7.07;;;;;;;17.62;100.00;97924.88;5111154;28;20110;-74
2023/07/09 04:30:13;;;;;;;7.93;5.43;;;;;;;17.69;100.00;97928.75;5128130;27;20062;-74
2023/07/09 04:32:38;;;;;;;10.00;5.35;;;;;;;17.82;100.00;97934.00;5130404;28;20035;-74
2023/07/09 04:35:06;;;;;;;8.23;5.03;;;;;;;17.76;100.00;97929.97;5124679;28;20493;-74
2023/07/09 04:37:32;;;;;;;9.98;5.50;;;;;;;17.97;100.00;97939.94;5128102;27;20110;-75
2023/07/09 04:39:57;;;;;;;11.57;6.50;;;;;;;18.00;100.00;97936.97;5130658;28;20090;-74
2023/07/09 04:42:23;;;;;;;8.95;5.40;;;;;;;18.20;100.00;97946.97;5131515;27;20031;-74
2023/07/09 04:44:49;;;;;;;17.40;7.40;;;;;;;18.53;100.00;97935.94;5130086;27;20043;-75
2023/07/09 04:47:14;;;;;;;5.63;5.03;;;;;;;18.68;100.00;97940.00;5113525;28;20386;-74
2023/07/09 04:49:40;;;;;;;7.60;4.68;;;;;;;18.57;100.00;97931.09;5113036;28;20031;-74
2023/07/09 04:52:07;;;;;;;6.18;4.55;;;;;;;18.61;100.00;97930.69;5130384;27;20027;-74
2023/07/09 04:54:32;;;;;;;5.45;4.55;;;;;;;18.68;100.00;97934.59;5113547;28;20498;-74
2023/07/09 04:56:58;;;;;;;6.90;4.90;;;;;;;18.43;100.00;97938.56;5130374;27;20092;-75
2023/07/09 04:59:24;;;;;;;10.27;5.65;;;;;;;18.60;100.00;97939.84;5131343;27;20077;-74
2023/07/09 05:01:50;;;;;;;7.70;4.90;;;;;;;18.69;100.00;97943.56;5130193;27;20419;-74
2023/07/09 05:04:16;;;;;;;9.25;5.00;;;;;;;18.60;100.00;97931.69;5113035;28;20023;-74
2023/07/09 05:06:41;;;;;;;7.13;4.90;;;;;;;19.04;100.00;97930.44;5130102;28;20384;-74
2023/07/09 05:09:07;;;;;;;5.35;4.53;;;;;;;19.41;100.00;97912.56;5129952;27;20085;-74
2023/07/09 05:11:34;;;;;;;8.85;4.70;;;;;;;19.54;100.00;97906.88;5130536;27;20038;-74
2023/07/09 05:14:00;;;;;;;8.38;5.82;;;;;;;19.84;100.00;97905.88;5116602;27;20063;-75
2023/07/09 05:16:25;;;;;;;9.43;4.70;;;;;;;20.61;100.00;97911.19;5133918;27;20051;-74
2023/07/09 05:18:51;;;;;;;17.20;10.65;;;;;;;20.66;100.00;97901.59;5122119;27;20103;-80
2023/07/09 05:21:16;;;;;;;9.13;4.88;;;;;;;20.48;100.00;97906.09;5131038;27;20027;-74
2023/07/09 05:23:42;;;;;;;8.07;4.47;;;;;;;20.47;100.00;97907.09;5125698;27;20486;-75
2023/07/09 05:26:07;;;;;;;9.70;3.85;;;;;;;20.88;100.00;97898.50;5111670;28;20118;-75
2023/07/09 05:28:33;;;;;;;10.38;4.13;;;;;;;21.14;100.00;97904.09;5129979;27;20023;-75
2023/07/09 05:30:59;;;;;;;8.68;3.72;;;;;;;20.83;100.00;97900.78;5113440;27;20039;-75
2023/07/09 05:33:25;;;;;;;7.97;4.32;;;;;;;20.86;100.00;97897.75;5130987;27;20030;-75
2023/07/09 05:35:50;;;;;;;10.15;4.72;;;;;;;21.03;100.00;97910.59;5130595;27;20023;-75
2023/07/09 05:38:16;;;;;;;7.43;4.07;;;;;;;21.22;100.00;97896.03;5132194;27;20110;-74
2023/07/09 05:40:42;;;;;;;7.35;4.80;;;;;;;21.34;100.00;97907.56;5113373;27;20027;-75
2023/07/09 05:43:09;;;;;;;5.60;4.53;;;;;;;21.84;100.00;97903.31;5130253;27;20106;-72
2023/07/09 05:45:34;;;;;;;7.80;4.90;;;;;;;22.64;100.00;97905.00;5111371;27;20579;-73
2023/07/09 05:48:00;;;;;;;6.53;4.70;;;;;;;22.22;100.00;97913.03;5111234;28;20035;-74
2023/07/09 05:50:27;;;;;;;8.57;4.90;;;;;;;22.08;100.00;97911.75;5127811;27;20031;-75
2023/07/09 05:52:53;;;;;;;10.13;4.55;;;;;;;22.63;100.00;97919.63;5130406;27;20038;-75
2023/07/09 05:55:18;;;;;;;8.15;5.70;;;;;;;22.80;100.00;97904.22;5116943;27;20035;-74
2023/07/09 05:57:44;;;;;;;27.50;16.48;;;;;;;23.79;100.00;97897.94;5111377;28;20092;-74
2023/07/09 06:00:10;;;;;;;10.35;4.35;;;;;;;24.24;100.00;97886.56;5131703;27;20027;-74
2023/07/09 06:02:36;;;;;;;6.45;3.85;;;;;;;23.75;100.00;97893.81;5125670;27;20059;-74
2023/07/09 06:05:01;;;;;;;6.75;4.75;;;;;;;23.21;100.00;97898.81;5114879;27;20059;-75
2023/07/09 06:07:27;;;;;;;8.15;4.25;;;;;;;23.79;100.00;97895.22;5129916;27;20031;-74
2023/07/09 06:09:53;;;;;;;10.10;4.43;;;;;;;23.47;100.00;97893.25;5134194;27;20023;-74
2023/07/09 06:12:19;;;;;;;8.95;4.45;;;;;;;23.63;100.00;97908.84;5132482;27;20038;-75
2023/07/09 06:14:45;;;;;;;5.35;3.83;;;;;;;23.99;100.00;97896.63;5113349;27;20035;-75
2023/07/09 06:17:11;;;;;;;9.95;4.75;;;;;;;24.05;100.00;97895.94;5095053;28;20031;-74
2023/07/09 06:19:38;;;;;;;10.15;4.43;;;;;;;24.13;100.00;97900.56;5130653;27;20084;-75
2023/07/09 06:22:03;;;;;;;8.57;4.28;;;;;;;24.46;100.00;97895.91;5115867;27;20035;-75
2023/07/09 06:24:29;;;;;;;10.88;5.07;;;;;;;25.00;100.00;97895.13;5115382;27;20071;-75
2023/07/09 06:26:54;;;;;;;39.03;26.20;;;;;;;24.53;100.00;97894.19;5127294;27;20084;-75
2023/07/09 06:29:20;;;;;;;10.02;4.03;;;;;;;24.64;100.00;97899.31;5113985;27;20096;-74
2023/07/09 06:31:46;;;;;;;9.07;4.00;;;;;;;24.59;100.00;97897.09;5131168;27;20034;-74
2023/07/09 06:34:11;;;;;;;12.38;3.97;;;;;;;25.10;100.00;97890.28;5132555;27;20076;-75
2023/07/09 06:36:36;;;;;;;10.88;4.80;;;;;;;25.19;100.00;97897.47;5128733;27;20028;-75
2023/07/09 06:39:02;;;;;;;9.38;4.80;;;;;;;25.94;100.00;97894.13;5113414;28;20034;-74
2023/07/09 06:41:28;;;;;;;8.45;4.30;;;;;;;26.23;100.00;97894.28;5113983;27;20027;-74
2023/07/09 06:43:54;;;;;;;6.97;4.47;;;;;;;27.01;100.00;97886.44;5103592;28;20023;-74
2023/07/09 06:46:20;;;;;;;7.13;4.82;;;;;;;26.42;100.00;97892.91;5119990;27;20491;-75
2023/07/09 06:48:45;;;;;;;10.05;5.25;;;;;;;27.10;100.00;97893.53;5108529;28;20031;-74
2023/07/09 06:51:11;;;;;;;10.98;5.20;;;;;;;26.79;100.00;97893.69;5113004;28;20495;-74
2023/07/09 06:53:37;;;;;;;11.68;6.65;;;;;;;27.40;98.34;97883.38;5111068;27;20102;-75
2023/07/09 06:56:03;;;;;;;11.35;5.70;;;;;;;27.88;92.82;97876.34;5109470;27;20053;-74
2023/07/09 06:58:31;;;;;;;19.70;6.72;;;;;;;29.41;82.00;97864.44;5114592;27;20030;-74
2023/07/09 07:00:57;;;;;;;14.32;4.90;;;;;;;30.59;71.16;97859.19;5114709;27;20034;-75
2023/07/09 07:03:24;;;;;;;10.95;5.20;;;;;;;31.55;63.64;97847.28;5131491;27;20390;-74
2023/07/09 07:05:53;;;;;;;7.30;5.03;;;;;;;32.10;59.67;97842.94;5133063;27;20031;-74
2023/07/09 07:08:21;;;;;;;13.05;5.47;;;;;;;32.73;57.53;97851.19;5131778;27;20056;-74
2023/07/09 07:10:50;;;;;;;10.75;5.72;;;;;;;32.10;57.84;97847.63;5114396;27;20023;-74
2023/07/09 07:13:16;;;;;;;14.10;5.93;;;;;;;32.31;57.97;97852.78;5114637;27;20064;-74
2023/07/09 07:15:48;;;;;;;20.10;5.80;;;;;;;32.50;56.55;97849.00;5132876;27;20519;-74
2023/07/09 07:18:14;;;;;;;8.50;4.75;;;;;;;33.61;51.69;97835.91;5131983;27;20486;-75
2023/07/09 07:20:39;;;;;;;13.27;6.32;;;;;;;34.42;49.44;97842.84;5131958;27;20021;-74
2023/07/09 07:23:05;;;;;;;9.45;4.75;;;;;;;33.85;48.35;97827.69;5132892;27;20023;-75
2023/07/09 07:25:32;;;;;;;8.38;4.85;;;;;;;34.21;48.48;97830.34;5132569;27;20047;-74
2023/07/09 07:27:57;;;;;;;8.57;5.20;;;;;;;34.27;46.57;97830.25;5131284;27;20480;-74
2023/07/09 07:30:23;;;;;;;9.52;5.13;;;;;;;34.70;45.92;97826.38;5131082;27;20106;-74
2023/07/09 07:32:49;;;;;;;8.30;4.38;;;;;;;35.09;41.56;97808.09;5131367;27;20105;-73
2023/07/09 07:35:15;;;;;;;6.97;4.15;;;;;;;35.52;41.70;97815.97;5110747;27;20043;-73
2023/07/09 07:37:41;;;;;;;4.68;3.88;;;;;;;35.03;41.15;97811.81;5129761;27;20474;-75
2023/07/09 07:40:07;;;;;;;9.88;4.25;;;;;;;35.90;39.19;97808.69;5131343;27;20023;-73
2023/07/09 07:42:33;;;;;;;10.55;4.70;;;;;;;36.45;39.43;97805.28;5131167;27;20023;-73
2023/07/09 07:44:59;;;;;;;5.15;3.40;;;;;;;36.57;36.64;97791.25;5131092;27;20038;-73
2023/07/09 07:47:25;;;;;;;9.93;3.53;;;;;;;36.27;36.62;97788.78;5131163;27;20027;-75
2023/07/09 07:49:51;;;;;;;6.90;3.90;;;;;;;37.53;35.17;97790.75;5132539;27;20378;-75
2023/07/09 07:52:17;;;;;;;7.57;3.08;;;;;;;37.10;35.34;97793.50;5113744;27;20039;-75
2023/07/09 07:54:42;;;;;;;8.10;3.10;;;;;;;37.63;31.96;97774.09;5131177;27;20030;-75
2023/07/09 07:57:09;;;;;;;4.28;3.20;;;;;;;37.28;31.37;97771.69;5130814;27;20019;-74
2023/07/09 07:59:35;;;;;;;9.00;3.40;;;;;;;38.12;31.74;97786.09;5130712;27;20034;-74
2023/07/09 08:02:02;;;;;;;9.40;2.80;;;;;;;37.64;32.24;97775.78;5113973;27;20019;-74
2023/07/09 08:04:27;;;;;;;4.60;2.97;;;;;;;38.16;31.85;97784.44;5130824;27;20027;-75
2023/07/09 08:06:53;;;;;;;6.60;3.30;;;;;;;38.64;31.28;97775.09;5118867;27;20034;-74
2023/07/09 08:09:21;;;;;;;5.90;3.60;;;;;;;38.67;32.42;97774.53;5129540;27;20402;-74
2023/07/09 08:11:49;;;;;;;11.57;3.65;;;;;;;39.10;31.36;97767.88;5130507;27;20387;-74
2023/07/09 08:14:15;;;;;;;6.88;3.40;;;;;;;38.05;32.86;97777.09;5113635;27;20037;-74
2023/07/09 08:16:40;;;;;;;3.65;2.80;;;;;;;38.44;32.03;97774.94;5125179;27;20487;-74
2023/07/09 08:19:06;;;;;;;3.17;2.70;;;;;;;37.12;32.39;97757.78;5127666;27;20030;-75
2023/07/09 08:21:31;;;;;;;3.88;2.88;;;;;;;38.18;32.26;97768.25;5131779;27;20026;-74
2023/07/09 08:23:57;;;;;;;7.57;3.50;;;;;;;37.82;32.84;97772.63;5130482;27;20516;-73
2023/07/09 08:26:24;;;;;;;7.85;3.17;;;;;;;37.24;33.09;97758.50;5130571;27;20027;-74
2023/07/09 08:28:50;;;;;;;5.25;3.85;;;;;;;36.34;34.16;97765.22;5130438;27;20059;-74
2023/07/09 08:31:16;;;;;;;18.70;5.15;;;;;;;36.72;34.69;97755.25;5130665;27;20027;-73
2023/07/09 08:33:42;;;;;;;6.75;3.33;;;;;;;36.76;33.67;97757.25;5130365;27;20113;-74
2023/07/09 08:36:07;;;;;;;12.02;3.97;;;;;;;36.62;34.13;97767.09;5130354;27;20118;-74
2023/07/09 08:38:33;;;;;;;3.10;2.80;;;;;;;37.27;33.45;97758.81;5130374;28;20049;-74
2023/07/09 08:41:00;;;;;;;8.98;3.53;;;;;;;38.43;32.90;97762.06;5101641;28;20030;-74
2023/07/09 08:43:58;;;;;;;7.68;3.13;;;;;;;38.41;32.38;97758.69;5112275;28;20490;-74
2023/07/09 08:46:36;;;;;;;5.38;3.05;;;;;;;38.20;31.95;97763.25;5129907;27;20035;-73
2023/07/09 08:49:03;;;;;;;6.25;3.08;;;;;;;37.53;33.36;97761.97;5135436;27;20033;-74
2023/07/09 08:51:38;;;;;;;6.00;4.05;;;;;;;38.24;33.18;97764.38;5114525;27;20079;-73
2023/07/09 08:54:28;;;;;;;4.82;2.55;;;;;;;37.91;32.72;97759.03;5126438;27;20391;-74
2023/07/09 08:56:55;;;;;;;7.93;5.72;;;;;;;38.11;31.72;97741.63;5127647;27;20522;-73
2023/07/09 08:59:21;;;;;;;5.10;3.20;;;;;;;39.21;31.53;97755.59;5116372;27;20020;-73
2023/07/09 09:01:52;;;;;;;7.28;4.55;;;;;;;39.46;31.06;97754.91;5131369;27;20476;-74
2023/07/09 09:04:36;;;;;;;6.25;4.20;;;;;;;38.47;31.50;97750.09;5134212;27;20019;-74
2023/07/09 09:07:02;;;;;;;7.20;3.38;;;;;;;39.95;30.32;97752.53;5133966;27;20057;-74
2023/07/09 09:09:36;;;;;;;7.07;3.38;;;;;;;40.97;28.72;97743.88;5135119;27;20467;-74
2023/07/09 09:12:21;;;;;;;6.88;3.10;;;;;;;40.44;28.69;97742.50;5134021;27;20039;-74
2023/07/09 09:14:55;;;;;;;10.65;3.65;;;;;;;39.44;29.52;97737.53;5134884;27;20031;-74
2023/07/09 09:17:20;;;;;;;5.82;3.58;;;;;;;39.12;28.62;97737.66;5133816;27;20476;-74
2023/07/09 09:19:55;;;;;;;4.45;2.60;;;;;;;39.19;30.10;97737.41;5133878;27;20103;-73
2023/07/09 09:22:29;;;;;;;9.13;3.00;;;;;;;40.20;28.47;97720.91;5134182;27;20031;-76
2023/07/09 09:25:16;;;;;;;11.10;3.20;;;;;;;38.45;29.98;97727.16;5128482;27;20062;-74
2023/07/09 09:27:42;;;;;;;9.82;3.58;;;;;;;39.19;29.57;97724.25;5133437;27;20023;-74
2023/07/09 09:30:17;;;;;;;6.63;3.40;;;;;;;39.02;30.61;97732.84;5133583;27;20031;-74
2023/07/09 09:32:48;;;;;;;4.75;3.05;;;;;;;40.64;29.00;97732.41;5133641;27;20027;-73
2023/07/09 09:35:15;;;;;;;4.38;3.00;;;;;;;41.20;28.74;97724.69;5129510;27;20025;-73
2023/07/09 09:37:49;;;;;;;5.32;3.20;;;;;;;41.42;28.44;97730.78;5125082;27;20031;-76
2023/07/09 09:40:17;;;;;;;5.35;3.25;;;;;;;41.46;27.41;97724.31;5133561;27;20092;-74
2023/07/09 09:42:43;;;;;;;2.60;2.38;;;;;;;41.35;27.82;97724.66;5116315;27;20154;-73
2023/07/09 09:45:15;;;;;;;3.78;3.00;;;;;;;42.01;27.11;97714.72;5133129;27;20047;-73
2023/07/09 09:47:40;;;;;;;4.25;2.83;;;;;;;41.61;27.40;97712.16;5134894;27;20497;-73
2023/07/09 09:50:06;;;;;;;3.50;2.75;;;;;;;40.57;27.71;97716.69;5128455;27;20110;-73
2023/07/09 09:52:33;;;;;;;6.20;3.00;;;;;;;40.67;28.12;97720.63;5130768;27;20034;-73
2023/07/09 09:55:08;;;;;;;3.70;2.58;;;;;;;40.55;27.61;97713.31;5133432;27;20458;-73
2023/07/09 09:57:34;;;;;;;5.82;2.70;;;;;;;40.23;27.90;97715.56;5132417;27;20035;-73
2023/07/09 09:59:59;;;;;;;4.05;3.30;;;;;;;41.06;27.48;97713.22;5133220;27;20026;-73
2023/07/09 10:02:25;;;;;;;6.07;3.35;;;;;;;41.69;26.30;97710.72;5132934;27;20172;-74
2023/07/09 10:04:51;;;;;;;7.28;3.90;;;;;;;40.28;28.67;97707.16;5132867;27;20023;-73
2023/07/09 10:07:17;;;;;;;10.52;3.28;;;;;;;40.73;28.09;97711.91;5132933;27;20031;-73
2023/07/09 10:09:52;;;;;;;6.22;2.83;;;;;;;40.49;27.54;97707.97;5133068;27;20034;-73
2023/07/09 10:12:44;;;;;;;6.20;4.00;;;;;;;40.90;27.57;97703.97;5132792;27;20129;-73
2023/07/09 10:15:39;;;;;;;5.35;3.30;;;;;;;41.28;27.33;97707.25;5128324;27;20019;-73
2023/07/09 10:18:17;;;;;;;6.28;4.47;;;;;;;41.18;27.71;97698.84;5128800;27;20372;-73
2023/07/09 10:21:10;;;;;;;4.43;3.15;;;;;;;41.58;27.08;97698.69;5132565;27;20049;-75
2023/07/09 10:24:05;;;;;;;3.00;2.70;;;;;;;41.55;27.08;97696.44;5109575;28;20038;-74
2023/07/09 10:26:47;;;;;;;9.05;2.72;;;;;;;42.16;26.18;97694.06;5113160;28;20033;-74
2023/07/09 10:29:30;;;;;;;3.25;2.72;;;;;;;41.48;26.69;97687.50;5112051;27;20054;-74
2023/07/09 10:32:15;;;;;;;3.40;2.63;;;;;;;41.96;26.18;97697.06;5119088;27;20046;-74
2023/07/09 10:35:22;;;;;;;4.28;2.90;;;;;;;41.67;26.86;97693.28;5113424;27;20024;-74
2023/07/09 10:37:47;;;;;;;5.25;2.92;;;;;;;42.44;26.23;97696.09;5113369;27;20043;-74
2023/07/09 10:40:15;;;;;;;4.82;2.85;;;;;;;43.93;24.57;97690.09;5132860;27;20398;-74
2023/07/09 10:42:52;;;;;;;5.43;2.78;;;;;;;43.78;24.53;97681.84;5132510;27;20030;-74
2023/07/09 10:45:43;;;;;;;3.80;2.97;;;;;;;44.07;24.58;97676.88;5132322;27;20043;-74
2023/07/09 10:48:33;;;;;;;4.53;2.80;;;;;;;43.11;25.04;97672.59;5105546;27;20042;-74
2023/07/09 10:51:02;;;;;;;3.45;2.90;;;;;;;41.98;27.43;97677.91;5132097;27;20114;-74
2023/07/09 10:53:44;;;;;;;5.80;3.20;;;;;;;43.30;26.28;97677.41;5133396;27;20534;-74
2023/07/09 10:56:21;;;;;;;8.82;3.00;;;;;;;44.03;25.50;97672.16;5132255;27;20038;-74
2023/07/09 10:59:08;;;;;;;7.18;2.72;;;;;;;43.93;25.60;97670.34;5114942;27;20019;-74
2023/07/09 11:01:39;;;;;;;4.15;2.97;;;;;;;44.69;24.54;97664.25;5131917;27;20024;-74
2023/07/09 11:04:31;;;;;;;3.90;2.92;;;;;;;43.91;25.54;97675.44;5132198;27;20533;-74
2023/07/09 11:07:00;;;;;;;4.88;3.30;;;;;;;43.08;26.36;97672.34;5122302;27;20463;-74
2023/07/09 11:09:37;;;;;;;6.43;3.10;;;;;;;41.59;27.94;97672.25;5128148;27;20514;-74
2023/07/09 11:12:19;;;;;;;9.90;3.85;;;;;;;43.34;26.66;97667.22;5132093;27;20019;-74
2023/07/09 11:14:55;;;;;;;12.32;5.00;;;;;;;43.20;26.55;97667.13;5131634;27;20023;-74
2023/07/09 11:17:22;;;;;;;3.80;3.38;;;;;;;43.07;26.79;97671.50;5132018;27;20117;-74
2023/07/09 11:19:59;;;;;;;5.95;3.47;;;;;;;43.08;26.76;97673.19;5131636;27;20053;-73
2023/07/09 11:22:39;;;;;;;9.98;3.50;;;;;;;43.28;26.87;97669.28;5131600;27;20076;-75
2023/07/09 11:25:06;;;;;;;4.57;3.20;;;;;;;41.47;27.67;97675.41;5131653;27;20062;-74
2023/07/09 11:27:33;;;;;;;7.30;2.97;;;;;;;40.53;28.09;97664.22;5131474;27;20027;-73
2023/07/09 11:30:05;;;;;;;6.53;2.92;;;;;;;40.00;29.65;97674.03;5129580;27;20023;-73
2023/07/09 11:32:30;;;;;;;12.75;2.83;;;;;;;41.62;27.79;97666.88;5111649;27;20474;-73